createdAt,value
2023-04-07T00:01:08.453Z,4.30
2023-04-07T00:03:38.118Z,4.30
2023-04-07T00:06:05.525Z,4.30
2023-04-07T00:08:32.754Z,4.30
2023-04-07T00:11:00.196Z,4.30
2023-04-07T00:13:27.995Z,4.30
2023-04-07T00:15:56.200Z,4.40
2023-04-07T00:18:23.646Z,4.40
2023-04-07T00:20:50.805Z,4.40
2023-04-07T00:23:18.030Z,4.40
2023-04-07T00:25:45.314Z,4.40
2023-04-07T00:28:12.783Z,4.50
2023-04-07T00:30:39.925Z,4.50
2023-04-07T00:33:09.598Z,4.50
2023-04-07T00:35:37.236Z,4.50
2023-04-07T00:38:04.485Z,4.50
2023-04-07T00:40:31.796Z,4.50
2023-04-07T00:42:59.032Z,4.50
2023-04-07T00:45:26.302Z,4.40
2023-04-07T00:47:53.499Z,4.50
2023-04-07T00:50:21.041Z,4.50
2023-04-07T00:52:48.272Z,4.60
2023-04-07T00:55:15.626Z,4.50
2023-04-07T00:57:43.305Z,4.70
2023-04-07T01:00:11.195Z,4.60
2023-04-07T01:02:45.723Z,4.60
2023-04-07T01:05:42.325Z,4.60
2023-04-07T01:08:42.632Z,4.60
2023-04-07T01:11:22.728Z,4.70
2023-04-07T01:13:52.590Z,4.80
2023-04-07T01:16:36.036Z,4.80
2023-04-07T01:19:21.815Z,4.80
2023-04-07T01:21:57.882Z,4.80
2023-04-07T01:24:56.812Z,4.80
2023-04-07T01:27:50.640Z,4.80
2023-04-07T01:30:19.245Z,4.80
2023-04-07T01:32:51.591Z,4.80
2023-04-07T01:35:20.064Z,4.80
2023-04-07T01:37:49.610Z,4.80
2023-04-07T01:40:17.431Z,4.80
2023-04-07T01:42:47.110Z,4.80
2023-04-07T01:45:16.567Z,4.80
2023-04-07T01:47:44.526Z,4.80
2023-04-07T01:50:12.859Z,4.80
2023-04-07T01:52:40.754Z,4.80
2023-04-07T01:55:10.072Z,4.80
2023-04-07T01:57:43.582Z,4.70
2023-04-07T02:00:17.803Z,4.80
2023-04-07T02:02:57.833Z,4.80
2023-04-07T02:05:29.666Z,4.80
2023-04-07T02:08:04.944Z,4.80
2023-04-07T02:10:37.748Z,4.80
2023-04-07T02:13:08.926Z,4.80
2023-04-07T02:15:37.487Z,4.80
2023-04-07T02:18:06.289Z,4.90
2023-04-07T02:20:36.838Z,5.00
2023-04-07T02:23:04.089Z,5.00
2023-04-07T02:25:32.461Z,5.00
2023-04-07T02:28:00.728Z,5.00
2023-04-07T02:30:28.378Z,5.00
2023-04-07T02:32:57.148Z,5.00
2023-04-07T02:35:24.788Z,5.10
2023-04-07T02:37:52.339Z,5.10
2023-04-07T02:40:19.545Z,5.10
2023-04-07T02:42:47.579Z,5.20
2023-04-07T02:45:14.952Z,5.20
2023-04-07T02:47:42.160Z,5.20
2023-04-07T02:50:09.994Z,5.30
2023-04-07T02:52:38.291Z,5.30
2023-04-07T02:55:11.474Z,5.30
2023-04-07T02:57:39.423Z,5.30
2023-04-07T03:00:12.346Z,5.40
2023-04-07T03:03:06.694Z,5.40
2023-04-07T03:05:37.438Z,5.40
2023-04-07T03:08:06.251Z,5.40
2023-04-07T03:10:33.749Z,5.40
2023-04-07T03:13:01.177Z,5.40
2023-04-07T03:15:30.049Z,5.40
2023-04-07T03:17:57.493Z,5.40
2023-04-07T03:20:24.710Z,5.40
2023-04-07T03:22:52.206Z,5.40
2023-04-07T03:25:27.495Z,5.40
2023-04-07T03:27:56.122Z,5.40
2023-04-07T03:30:25.567Z,5.40
2023-04-07T03:32:53.072Z,5.40
2023-04-07T03:35:20.565Z,5.40
2023-04-07T03:37:48.031Z,5.30
2023-04-07T03:40:18.056Z,5.30
2023-04-07T03:42:46.824Z,5.30
2023-04-07T03:45:14.822Z,5.30
2023-04-07T03:47:47.340Z,5.30
2023-04-07T03:50:15.755Z,5.30
2023-04-07T03:52:57.466Z,5.30
2023-04-07T03:55:27.238Z,5.30
2023-04-07T03:57:59.685Z,5.20
2023-04-07T04:00:33.134Z,5.20
2023-04-07T04:03:08.505Z,5.20
2023-04-07T04:05:40.785Z,5.20
2023-04-07T04:08:11.100Z,5.20
2023-04-07T04:10:41.222Z,5.20
2023-04-07T04:13:10.306Z,5.20
2023-04-07T04:15:38.377Z,5.20
2023-04-07T04:18:09.901Z,5.10
2023-04-07T04:20:37.822Z,5.10
2023-04-07T04:23:06.221Z,5.10
2023-04-07T04:25:35.108Z,5.10
2023-04-07T04:28:06.570Z,5.10
2023-04-07T04:30:33.877Z,5.10
2023-04-07T04:33:04.389Z,5.10
2023-04-07T04:35:37.513Z,5.10
2023-04-07T04:38:11.286Z,5.10
2023-04-07T04:40:43.052Z,5.20
2023-04-07T04:43:10.748Z,5.20
2023-04-07T04:45:40.504Z,5.20
2023-04-07T04:48:11.341Z,5.10
2023-04-07T04:50:38.750Z,5.10
2023-04-07T04:53:10.673Z,5.10
2023-04-07T04:55:48.343Z,5.20
2023-04-07T04:58:20.498Z,5.10
2023-04-07T05:00:57.946Z,5.10
2023-04-07T05:03:30.646Z,5.10
2023-04-07T05:06:01.593Z,5.10
2023-04-07T05:08:28.774Z,5.10
2023-04-07T05:10:57.723Z,5.20
2023-04-07T05:13:30.579Z,5.20
2023-04-07T05:16:01.259Z,5.20
2023-04-07T05:18:29.265Z,5.20
2023-04-07T05:20:57.797Z,5.30
2023-04-07T05:23:27.664Z,5.30
2023-04-07T05:25:55.348Z,5.30
2023-04-07T05:28:23.542Z,5.30
2023-04-07T05:30:52.475Z,5.30
2023-04-07T05:33:22.077Z,5.30
2023-04-07T05:35:52.841Z,5.30
2023-04-07T05:38:20.485Z,5.30
2023-04-07T05:40:49.817Z,5.40
2023-04-07T05:43:36.925Z,5.40
2023-04-07T05:46:05.388Z,5.40
2023-04-07T05:48:35.827Z,5.40
2023-04-07T05:51:03.850Z,5.40
2023-04-07T05:53:31.444Z,5.30
2023-04-07T05:55:58.769Z,5.40
2023-04-07T05:58:40.425Z,5.40
2023-04-07T06:01:10.026Z,5.50
2023-04-07T06:03:37.556Z,5.60
2023-04-07T06:06:15.441Z,5.70
2023-04-07T06:08:42.936Z,5.70
2023-04-07T06:11:10.261Z,5.90
2023-04-07T06:13:37.737Z,6.00
2023-04-07T06:16:06.337Z,6.00
2023-04-07T06:18:33.656Z,6.00
2023-04-07T06:21:01.498Z,6.00
2023-04-07T06:23:28.647Z,6.00
2023-04-07T06:25:55.868Z,6.10
2023-04-07T06:28:23.229Z,6.10
2023-04-07T06:30:50.746Z,6.10
2023-04-07T06:33:18.659Z,6.20
2023-04-07T06:35:46.490Z,6.30
2023-04-07T06:38:13.709Z,6.30
2023-04-07T06:40:41.032Z,6.40
2023-04-07T06:43:08.461Z,6.40
2023-04-07T06:45:49.649Z,6.50
2023-04-07T06:48:16.835Z,6.60
2023-04-07T06:50:49.582Z,6.70
2023-04-07T06:53:16.763Z,6.90
2023-04-07T06:55:44.084Z,6.90
2023-04-07T06:58:11.418Z,7.00
2023-04-07T07:00:39.141Z,7.10
2023-04-07T07:03:06.586Z,7.10
2023-04-07T07:05:34.229Z,7.20
2023-04-07T07:08:01.470Z,7.30
2023-04-07T07:10:28.689Z,7.30
2023-04-07T07:12:55.887Z,7.40
2023-04-07T07:15:23.348Z,7.60
2023-04-07T07:17:50.604Z,7.70
2023-04-07T07:20:17.870Z,7.70
2023-04-07T07:22:45.036Z,7.70
2023-04-07T07:25:12.357Z,7.80
2023-04-07T07:27:39.833Z,8.00
2023-04-07T07:30:07.823Z,8.10
2023-04-07T07:32:35.299Z,8.20
2023-04-07T07:35:02.582Z,8.30
2023-04-07T07:37:29.726Z,8.50
2023-04-07T07:39:56.925Z,8.50
2023-04-07T07:42:24.132Z,8.70
2023-04-07T07:44:51.530Z,8.80
2023-04-07T07:47:18.709Z,8.90
2023-04-07T07:49:45.956Z,9.20
2023-04-07T07:52:13.173Z,9.10
2023-04-07T07:54:40.645Z,9.20
2023-04-07T07:57:07.851Z,9.30
2023-04-07T07:59:35.841Z,9.20
2023-04-07T08:02:03.041Z,9.30
2023-04-07T08:04:30.372Z,9.30
2023-04-07T08:06:58.176Z,9.30
2023-04-07T08:09:26.084Z,9.20
2023-04-07T08:11:53.634Z,9.40
2023-04-07T08:14:21.027Z,9.30
2023-04-07T08:16:48.232Z,9.50
2023-04-07T08:19:15.531Z,9.40
2023-04-07T08:21:42.724Z,9.40
2023-04-07T08:24:11.438Z,9.50
2023-04-07T08:26:38.717Z,9.60
2023-04-07T08:29:05.874Z,9.60
2023-04-07T08:31:33.276Z,9.60
2023-04-07T08:34:00.634Z,9.70
2023-04-07T08:36:28.755Z,9.70
2023-04-07T08:38:56.018Z,9.70
2023-04-07T08:41:41.397Z,9.80
2023-04-07T08:44:11.812Z,10.00
2023-04-07T08:46:40.427Z,10.20
2023-04-07T08:49:10.279Z,10.40
2023-04-07T08:51:38.731Z,10.50
2023-04-07T08:54:10.789Z,10.60
2023-04-07T08:56:41.213Z,10.70
2023-04-07T08:59:13.495Z,10.80
2023-04-07T09:01:41.805Z,11.00
2023-04-07T09:04:10.563Z,11.00
2023-04-07T09:06:38.492Z,11.10
2023-04-07T09:09:06.253Z,11.30
2023-04-07T09:11:37.162Z,11.40
2023-04-07T09:14:05.628Z,11.40
2023-04-07T09:16:32.891Z,11.40
2023-04-07T09:19:00.142Z,11.50
2023-04-07T09:21:46.553Z,11.40
2023-04-07T09:24:31.828Z,11.60
2023-04-07T09:27:17.372Z,11.70
2023-04-07T09:29:47.401Z,11.70
2023-04-07T09:32:38.640Z,11.80
2023-04-07T09:35:06.459Z,12.00
2023-04-07T09:37:33.677Z,12.10
2023-04-07T09:40:01.569Z,12.10
2023-04-07T09:42:32.311Z,12.10
2023-04-07T09:45:00.830Z,12.10
2023-04-07T09:47:31.213Z,12.00
2023-04-07T09:50:01.883Z,12.00
2023-04-07T09:52:52.425Z,11.90
2023-04-07T09:55:23.791Z,12.20
2023-04-07T09:57:51.923Z,12.30
2023-04-07T10:00:19.430Z,12.40
2023-04-07T10:02:47.851Z,12.30
2023-04-07T10:05:15.621Z,12.40
2023-04-07T10:07:43.555Z,12.70
2023-04-07T10:10:11.380Z,13.00
2023-04-07T10:12:38.980Z,13.20
2023-04-07T10:15:07.228Z,13.20
2023-04-07T10:17:36.595Z,13.40
2023-04-07T10:20:06.862Z,13.60
2023-04-07T10:22:36.476Z,13.90
2023-04-07T10:25:09.712Z,13.90
2023-04-07T10:27:51.179Z,13.90
2023-04-07T10:30:31.051Z,13.80
2023-04-07T10:32:58.803Z,13.90
2023-04-07T10:35:26.203Z,13.50
2023-04-07T10:38:10.435Z,13.50
2023-04-07T10:40:38.471Z,13.40
2023-04-07T10:43:11.245Z,13.30
2023-04-07T10:45:48.307Z,13.30
2023-04-07T10:48:17.145Z,13.00
2023-04-07T10:51:07.958Z,13.20
2023-04-07T10:53:35.440Z,13.30
2023-04-07T10:56:03.065Z,13.40
2023-04-07T10:58:31.064Z,13.30
2023-04-07T11:01:07.128Z,13.40
2023-04-07T11:03:37.565Z,13.30
2023-04-07T11:06:08.384Z,13.60
2023-04-07T11:08:38.226Z,13.50
2023-04-07T11:11:09.771Z,13.50
2023-04-07T11:13:51.140Z,13.60
2023-04-07T11:16:20.739Z,13.50
2023-04-07T11:18:48.331Z,13.40
2023-04-07T11:21:20.042Z,13.30
2023-04-07T11:23:47.857Z,13.30
2023-04-07T11:26:16.294Z,13.20
2023-04-07T11:28:47.867Z,13.20
2023-04-07T11:31:29.803Z,13.20
2023-04-07T11:34:07.619Z,13.20
2023-04-07T11:36:41.777Z,13.40
2023-04-07T11:39:22.401Z,13.50
2023-04-07T11:41:51.071Z,13.60
2023-04-07T11:44:18.562Z,13.90
2023-04-07T11:46:58.261Z,14.10
2023-04-07T11:49:31.760Z,14.10
2023-04-07T11:52:01.868Z,14.10
2023-04-07T11:54:41.642Z,14.00
2023-04-07T11:57:12.450Z,14.10
2023-04-07T11:59:40.839Z,14.20
2023-04-07T12:02:08.361Z,14.10
2023-04-07T12:04:37.826Z,13.90
2023-04-07T12:07:12.113Z,13.80
2023-04-07T12:09:40.373Z,13.80
2023-04-07T12:12:09.954Z,13.70
2023-04-07T12:14:37.643Z,13.60
2023-04-07T12:17:04.878Z,13.60
2023-04-07T12:19:34.845Z,13.70
2023-04-07T12:22:02.086Z,13.90
2023-04-07T12:24:29.281Z,13.90
2023-04-07T12:26:56.547Z,13.80
2023-04-07T12:29:24.054Z,13.90
2023-04-07T12:31:51.572Z,13.90
2023-04-07T12:34:19.112Z,13.80
2023-04-07T12:36:46.343Z,13.70
2023-04-07T12:39:14.001Z,13.60
2023-04-07T12:41:42.156Z,13.60
2023-04-07T12:44:09.912Z,13.70
2023-04-07T12:46:37.160Z,13.70
2023-04-07T12:49:04.351Z,13.70
2023-04-07T12:51:33.363Z,13.50
2023-04-07T12:54:01.336Z,13.30
2023-04-07T12:56:28.630Z,13.20
2023-04-07T12:58:56.041Z,13.10
2023-04-07T13:01:23.359Z,12.90
2023-04-07T13:03:51.362Z,12.90
2023-04-07T13:06:19.364Z,13.10
2023-04-07T13:08:46.552Z,13.20
2023-04-07T13:11:13.740Z,13.30
2023-04-07T13:13:41.030Z,13.30
2023-04-07T13:16:08.456Z,13.40
2023-04-07T13:18:36.589Z,13.50
2023-04-07T13:23:42.602Z,13.40
2023-04-07T13:26:11.559Z,13.20
2023-04-07T13:28:39.030Z,13.00
2023-04-07T13:31:06.440Z,12.80
2023-04-07T13:33:34.900Z,12.70
2023-04-07T13:36:02.194Z,12.70
2023-04-07T13:38:29.370Z,12.70
2023-04-07T13:40:56.533Z,12.60
2023-04-07T13:43:23.689Z,12.50
2023-04-07T13:45:51.070Z,12.40
2023-04-07T13:48:18.294Z,12.50
2023-04-07T13:50:45.605Z,12.40
2023-04-07T13:53:12.846Z,12.50
2023-04-07T13:55:40.038Z,12.60
2023-04-07T13:58:07.278Z,12.50
2023-04-07T14:00:35.736Z,12.60
2023-04-07T14:03:04.286Z,12.60
2023-04-07T14:05:31.895Z,12.70
2023-04-07T14:07:59.090Z,12.90
2023-04-07T14:10:26.305Z,13.00
2023-04-07T14:12:53.573Z,13.00
2023-04-07T14:15:20.840Z,12.90
2023-04-07T14:17:48.054Z,13.00
2023-04-07T14:20:15.301Z,13.00
2023-04-07T14:22:42.453Z,13.10
2023-04-07T14:25:11.124Z,13.10
2023-04-07T14:27:38.291Z,13.00
2023-04-07T14:30:06.049Z,12.80
2023-04-07T14:32:34.235Z,12.80
2023-04-07T14:35:02.278Z,12.60
2023-04-07T14:37:29.533Z,12.70
2023-04-07T14:42:29.613Z,12.80
2023-04-07T14:44:57.180Z,12.90
2023-04-07T14:47:24.468Z,12.70
2023-04-07T14:49:53.576Z,12.80
2023-04-07T14:52:21.786Z,12.80
2023-04-07T14:54:49.228Z,12.70
2023-04-07T14:57:17.189Z,12.70
2023-04-07T14:59:44.522Z,12.60
2023-04-07T15:02:11.785Z,12.60
2023-04-07T15:04:39.277Z,12.50
2023-04-07T15:07:06.499Z,12.40
2023-04-07T15:09:33.717Z,12.30
2023-04-07T15:12:02.111Z,12.20
2023-04-07T15:14:30.090Z,12.10
2023-04-07T15:16:57.344Z,12.00
2023-04-07T15:19:24.501Z,12.00
2023-04-07T15:21:51.725Z,11.90
2023-04-07T15:24:21.215Z,11.80
2023-04-07T15:26:49.249Z,11.80
2023-04-07T15:29:16.646Z,11.70
2023-04-07T15:31:43.892Z,11.80
2023-04-07T15:34:11.289Z,11.80
2023-04-07T15:36:38.482Z,11.70
2023-04-07T15:39:09.560Z,11.70
2023-04-07T15:41:36.875Z,11.80
2023-04-07T15:44:04.748Z,11.80
2023-04-07T15:46:32.168Z,11.70
2023-04-07T15:49:00.291Z,11.70
2023-04-07T15:51:29.034Z,11.60
2023-04-07T15:53:56.331Z,11.50
2023-04-07T15:56:24.676Z,11.50
2023-04-07T15:58:52.238Z,11.60
2023-04-07T16:01:19.891Z,11.50
2023-04-07T16:03:47.475Z,11.50
2023-04-07T16:06:15.399Z,11.40
2023-04-07T16:08:42.576Z,11.40
2023-04-07T16:11:09.755Z,11.50
2023-04-07T16:13:37.221Z,11.40
2023-04-07T16:16:04.586Z,11.60
2023-04-07T16:18:31.820Z,11.70
2023-04-07T16:20:59.085Z,11.60
2023-04-07T16:23:26.349Z,11.50
2023-04-07T16:25:53.568Z,11.50
2023-04-07T16:28:20.819Z,11.50
2023-04-07T16:30:47.966Z,11.40
2023-04-07T16:33:15.110Z,11.30
2023-04-07T16:35:42.348Z,11.30
2023-04-07T16:38:09.766Z,11.30
2023-04-07T16:40:36.977Z,11.40
2023-04-07T16:43:04.173Z,11.30
2023-04-07T16:45:31.373Z,11.20
2023-04-07T16:48:01.364Z,11.10
2023-04-07T16:50:28.550Z,11.10
2023-04-07T16:52:57.462Z,11.00
2023-04-07T16:55:24.828Z,11.00
2023-04-07T16:57:52.008Z,10.90
2023-04-07T17:00:20.170Z,10.90
2023-04-07T17:02:47.409Z,10.90
2023-04-07T17:05:14.657Z,10.80
2023-04-07T17:07:42.260Z,10.80
2023-04-07T17:10:09.822Z,10.80
2023-04-07T17:12:37.008Z,10.70
2023-04-07T17:15:04.446Z,10.70
2023-04-07T17:17:31.666Z,10.60
2023-04-07T17:19:59.686Z,10.60
2023-04-07T17:22:26.871Z,10.60
2023-04-07T17:24:54.015Z,10.50
2023-04-07T17:27:21.186Z,10.50
2023-04-07T17:29:48.332Z,10.60
2023-04-07T17:32:15.485Z,10.50
2023-04-07T17:34:42.637Z,10.50
2023-04-07T17:37:09.801Z,10.40
2023-04-07T17:39:36.988Z,10.40
2023-04-07T17:42:04.263Z,10.40
2023-04-07T17:44:31.512Z,10.40
2023-04-07T17:46:58.947Z,10.40
2023-04-07T17:49:26.804Z,10.50
2023-04-07T17:51:54.108Z,10.30
2023-04-07T17:54:21.324Z,10.30
2023-04-07T17:56:49.093Z,10.30
2023-04-07T17:59:16.289Z,10.30
2023-04-07T18:01:43.586Z,10.30
2023-04-07T18:04:10.937Z,10.30
2023-04-07T18:06:38.171Z,10.20
2023-04-07T18:09:05.323Z,10.20
2023-04-07T18:11:32.780Z,10.20
2023-04-07T18:14:00.506Z,10.20
2023-04-07T18:16:27.699Z,10.10
2023-04-07T18:18:55.310Z,10.10
2023-04-07T18:21:22.462Z,10.10
2023-04-07T18:23:49.842Z,10.00
2023-04-07T18:26:17.223Z,10.00
2023-04-07T18:28:44.575Z,10.00
2023-04-07T18:31:12.323Z,10.00
2023-04-07T18:33:39.578Z,10.00
2023-04-07T18:36:08.023Z,10.00
2023-04-07T18:38:36.324Z,10.00
2023-04-07T18:41:04.006Z,10.00
2023-04-07T18:43:31.357Z,9.90
2023-04-07T18:45:58.622Z,9.90
2023-04-07T18:48:26.251Z,9.90
2023-04-07T18:50:55.052Z,9.80
2023-04-07T18:53:23.693Z,9.90
2023-04-07T18:55:51.201Z,9.80
2023-04-07T18:58:19.332Z,9.80
2023-04-07T19:00:49.676Z,9.80
2023-04-07T19:03:17.304Z,9.70
2023-04-07T19:05:47.681Z,9.70
2023-04-07T19:08:16.232Z,9.70
2023-04-07T19:10:43.677Z,9.70
2023-04-07T19:13:10.895Z,9.70
2023-04-07T19:15:39.233Z,9.70
2023-04-07T19:18:08.241Z,9.80
2023-04-07T19:20:35.640Z,9.70
2023-04-07T19:23:03.478Z,9.80
2023-04-07T19:25:31.218Z,9.90
2023-04-07T19:27:58.924Z,9.80
2023-04-07T19:30:26.385Z,9.80
2023-04-07T19:32:53.865Z,9.80
2023-04-07T19:35:21.540Z,9.80
2023-04-07T19:37:48.801Z,9.60
2023-04-07T19:40:16.453Z,9.60
2023-04-07T19:42:43.678Z,9.70
2023-04-07T19:45:11.397Z,9.60
2023-04-07T19:47:39.007Z,9.60
2023-04-07T19:50:06.891Z,9.60
2023-04-07T19:52:34.157Z,9.70
2023-04-07T19:55:03.739Z,9.70
2023-04-07T19:57:31.443Z,9.70
2023-04-07T19:59:58.736Z,9.70
2023-04-07T20:02:26.196Z,9.70
2023-04-07T20:04:54.010Z,9.60
2023-04-07T20:07:22.628Z,9.70
2023-04-07T20:09:51.278Z,9.70
2023-04-07T20:12:18.520Z,9.70
2023-04-07T20:14:46.000Z,9.70
2023-04-07T20:17:13.233Z,9.70
2023-04-07T20:19:41.111Z,9.70
2023-04-07T20:22:08.711Z,9.60
2023-04-07T20:24:36.153Z,9.60
2023-04-07T20:27:03.482Z,9.50
2023-04-07T20:29:30.680Z,9.50
2023-04-07T20:31:57.835Z,9.40
2023-04-07T20:34:25.300Z,9.40
2023-04-07T20:36:52.549Z,9.40
2023-04-07T20:39:19.716Z,9.40
2023-04-07T20:41:46.965Z,9.30
2023-04-07T20:44:14.193Z,9.30
2023-04-07T20:46:42.006Z,9.20
2023-04-07T20:49:09.315Z,9.20
2023-04-07T20:51:36.691Z,9.10
2023-04-07T20:54:04.661Z,9.00
2023-04-07T20:56:32.062Z,9.00
2023-04-07T20:58:59.547Z,9.00
2023-04-07T21:01:26.785Z,8.90
2023-04-07T21:03:54.752Z,8.80
2023-04-07T21:06:22.212Z,8.80
2023-04-07T21:08:49.655Z,8.70
2023-04-07T21:11:17.066Z,8.70
2023-04-07T21:13:44.288Z,8.70
2023-04-07T21:16:11.557Z,8.60
2023-04-07T21:18:38.845Z,8.60
2023-04-07T21:21:08.042Z,8.50
2023-04-07T21:23:35.389Z,8.40
2023-04-07T21:26:03.731Z,8.20
2023-04-07T21:28:30.946Z,8.20
2023-04-07T21:30:58.464Z,8.10
2023-04-07T21:33:25.693Z,8.00
2023-04-07T21:35:53.060Z,7.90
2023-04-07T21:38:20.381Z,7.90
2023-04-07T21:40:47.560Z,7.80
2023-04-07T21:43:14.775Z,7.80
2023-04-07T21:45:41.974Z,7.70
2023-04-07T21:48:09.355Z,7.70
2023-04-07T21:50:37.004Z,7.50
2023-04-07T21:53:04.209Z,7.40
2023-04-07T21:55:31.439Z,7.40
2023-04-07T21:57:58.726Z,7.40
2023-04-07T22:00:26.164Z,7.30
2023-04-07T22:02:54.673Z,7.20
2023-04-07T22:05:22.224Z,7.20
2023-04-07T22:07:49.440Z,7.10
2023-04-07T22:10:16.928Z,7.00
2023-04-07T22:12:44.333Z,7.00
2023-04-07T22:15:13.232Z,7.00
2023-04-07T22:17:40.705Z,7.00
2023-04-07T22:20:10.309Z,7.10
2023-04-07T22:22:37.783Z,6.90
2023-04-07T22:25:06.081Z,6.80
2023-04-07T22:27:33.311Z,6.80
2023-04-07T22:30:00.527Z,6.80
2023-04-07T22:32:27.739Z,6.70
2023-04-07T22:34:55.044Z,6.70
2023-04-07T22:37:22.233Z,6.70
2023-04-07T22:39:49.432Z,6.60
2023-04-07T22:42:16.697Z,6.50
2023-04-07T22:44:43.934Z,6.50
2023-04-07T22:47:11.148Z,6.50
2023-04-07T22:49:38.410Z,6.40
2023-04-07T22:52:05.595Z,6.40
2023-04-07T22:54:32.798Z,6.40
2023-04-07T22:56:59.937Z,6.40
2023-04-07T22:59:27.144Z,6.30
2023-04-07T23:01:56.265Z,6.30
2023-04-07T23:04:24.936Z,6.20
2023-04-07T23:06:52.133Z,6.20
2023-04-07T23:09:19.337Z,6.10
2023-04-07T23:11:49.776Z,6.10
2023-04-07T23:14:17.128Z,6.00
2023-04-07T23:16:44.400Z,6.00
2023-04-07T23:19:15.548Z,6.00
2023-04-07T23:21:43.375Z,5.90
2023-04-07T23:24:10.806Z,5.90
2023-04-07T23:26:38.064Z,5.90
2023-04-07T23:29:05.528Z,5.80
2023-04-07T23:31:32.847Z,5.80
2023-04-07T23:34:00.145Z,5.80
2023-04-07T23:36:27.930Z,5.80
2023-04-07T23:38:56.175Z,5.70
2023-04-07T23:41:23.957Z,5.80
2023-04-07T23:43:51.535Z,5.70
2023-04-07T23:46:18.753Z,5.70
2023-04-07T23:48:46.455Z,5.70
2023-04-07T23:51:13.602Z,5.70
2023-04-07T23:53:40.971Z,5.70
2023-04-07T23:56:08.405Z,5.70
2023-04-07T23:58:35.578Z,5.70
